createdAt,value
2018-05-10T00:00:38.740Z,4.05
2018-05-10T00:03:06.016Z,4.07
2018-05-10T00:05:32.238Z,4.07
2018-05-10T00:08:00.142Z,3.70
2018-05-10T00:10:26.310Z,3.65
2018-05-10T00:12:52.520Z,3.75
2018-05-10T00:15:18.690Z,3.78
2018-05-10T00:17:44.866Z,4.25
2018-05-10T00:20:11.040Z,3.62
2018-05-10T00:22:37.234Z,3.67
2018-05-10T00:25:03.424Z,3.85
2018-05-10T00:27:29.599Z,3.75
2018-05-10T00:29:55.803Z,4.05
2018-05-10T00:32:21.981Z,3.90
2018-05-10T00:34:48.150Z,4.30
2018-05-10T00:37:14.346Z,4.25
2018-05-10T00:39:40.514Z,4.40
2018-05-10T00:42:06.702Z,4.62
2018-05-10T00:44:32.916Z,4.53
2018-05-10T00:47:00.227Z,3.67
2018-05-10T00:49:26.428Z,4.37
2018-05-10T00:51:52.646Z,4.50
2018-05-10T00:54:31.323Z,4.50
2018-05-10T00:56:57.502Z,4.12
2018-05-10T00:59:23.674Z,4.37
2018-05-10T01:01:49.870Z,4.28
2018-05-10T01:04:16.077Z,4.18
2018-05-10T01:06:42.274Z,3.83
2018-05-10T01:09:08.467Z,4.07
2018-05-10T01:11:34.624Z,4.25
2018-05-10T01:14:00.839Z,4.75
2018-05-10T01:16:26.998Z,4.40
2018-05-10T01:18:53.184Z,4.22
2018-05-10T01:21:19.363Z,4.05
2018-05-10T01:23:45.517Z,4.65
2018-05-10T01:26:11.697Z,4.78
2018-05-10T01:28:37.864Z,4.50
2018-05-10T01:31:05.165Z,5.03
2018-05-10T01:33:32.272Z,4.22
2018-05-10T01:36:10.922Z,4.80
2018-05-10T01:38:37.095Z,4.78
2018-05-10T01:41:03.269Z,4.50
2018-05-10T01:43:29.470Z,4.65
2018-05-10T01:45:55.686Z,5.30
2018-05-10T01:48:22.986Z,5.00
2018-05-10T01:50:49.179Z,4.97
2018-05-10T01:53:15.350Z,5.05
2018-05-10T01:55:42.995Z,5.22
2018-05-10T01:58:10.163Z,5.25
2018-05-10T02:00:36.616Z,4.95
2018-05-10T02:03:03.096Z,5.28
2018-05-10T02:05:29.535Z,5.00
2018-05-10T02:07:56.002Z,5.50
2018-05-10T02:10:22.186Z,5.35
2018-05-10T02:12:48.342Z,5.12
2018-05-10T02:15:15.637Z,5.12
2018-05-10T02:17:41.840Z,5.10
2018-05-10T02:20:08.008Z,5.60
2018-05-10T02:22:34.215Z,5.75
2018-05-10T02:25:00.377Z,4.97
2018-05-10T02:27:27.649Z,5.37
2018-05-10T02:29:53.835Z,5.47
2018-05-10T02:32:20.011Z,5.47
2018-05-10T02:34:46.213Z,5.60
2018-05-10T02:37:12.380Z,6.32
2018-05-10T02:39:38.568Z,5.50
2018-05-10T02:42:04.778Z,6.05
2018-05-10T02:44:32.045Z,5.45
2018-05-10T02:46:59.339Z,5.55
2018-05-10T02:49:25.514Z,5.93
2018-05-10T02:51:51.707Z,5.37
2018-05-10T02:54:17.940Z,5.75
2018-05-10T02:56:45.239Z,5.62
2018-05-10T02:59:11.427Z,5.80
2018-05-10T03:01:37.590Z,4.65
2018-05-10T03:04:05.246Z,4.65
2018-05-10T03:06:32.548Z,4.95
2018-05-10T03:08:58.733Z,5.10
2018-05-10T03:11:24.925Z,4.50
2018-05-10T03:13:51.110Z,4.45
2018-05-10T03:16:17.282Z,4.97
2018-05-10T03:18:44.597Z,4.45
2018-05-10T03:21:10.771Z,4.60
2018-05-10T03:23:36.956Z,5.90
2018-05-10T03:26:03.162Z,6.03
2018-05-10T03:28:29.334Z,6.12
2018-05-10T03:30:55.520Z,5.70
2018-05-10T03:33:21.784Z,5.87
2018-05-10T03:35:47.938Z,5.68
2018-05-10T03:38:15.245Z,5.85
2018-05-10T03:40:41.431Z,6.82
2018-05-10T03:43:08.734Z,6.20
2018-05-10T03:45:34.915Z,6.87
2018-05-10T03:48:01.107Z,6.57
2018-05-10T03:50:27.295Z,5.90
2018-05-10T03:52:53.590Z,7.20
2018-05-10T03:55:19.772Z,6.40
2018-05-10T03:57:45.938Z,6.03
2018-05-10T04:00:12.162Z,6.47
2018-05-10T04:05:49.518Z,6.43
2018-05-10T04:08:29.036Z,7.62
2018-05-10T04:11:07.489Z,8.73
2018-05-10T04:13:33.651Z,8.05
2018-05-10T04:15:59.820Z,8.57
2018-05-10T04:18:25.999Z,11.18
2018-05-10T04:20:52.162Z,11.90
2018-05-10T04:23:18.334Z,10.75
2018-05-10T04:25:44.502Z,13.25
2018-05-10T04:28:10.679Z,12.93
2018-05-10T04:30:36.860Z,12.52
2018-05-10T04:33:03.040Z,12.05
2018-05-10T04:35:29.230Z,12.32
2018-05-10T04:37:56.491Z,13.23
2018-05-10T04:40:23.762Z,12.70
2018-05-10T04:42:51.046Z,11.77
2018-05-10T04:45:17.196Z,12.37
2018-05-10T04:47:43.378Z,11.77
2018-05-10T04:50:09.606Z,11.12
2018-05-10T04:52:35.769Z,10.60
2018-05-10T04:55:02.534Z,10.70
2018-05-10T04:57:28.731Z,9.65
2018-05-10T04:59:54.958Z,11.07
2018-05-10T05:02:21.126Z,10.88
2018-05-10T05:04:47.296Z,10.35
2018-05-10T05:07:14.587Z,11.95
2018-05-10T05:09:40.738Z,10.15
2018-05-10T05:12:06.927Z,11.10
2018-05-10T05:14:33.201Z,10.73
2018-05-10T05:16:59.359Z,12.95
2018-05-10T05:19:25.605Z,10.45
2018-05-10T05:21:51.767Z,10.73
2018-05-10T05:24:17.950Z,13.75
2018-05-10T05:26:45.266Z,13.68
2018-05-10T05:29:11.455Z,13.20
2018-05-10T05:31:38.765Z,15.15
2018-05-10T05:34:04.990Z,16.65
2018-05-10T05:36:31.316Z,17.67
2018-05-10T05:38:59.020Z,20.48
2018-05-10T05:41:26.157Z,21.55
2018-05-10T05:43:52.378Z,24.95
2018-05-10T05:46:18.584Z,25.67
2018-05-10T05:48:46.753Z,26.98
2018-05-10T05:51:14.128Z,31.05
2018-05-10T05:53:40.533Z,31.42
2018-05-10T05:56:06.765Z,32.75
2018-05-10T05:58:34.071Z,36.28
2018-05-10T06:01:00.294Z,30.83
2018-05-10T06:03:26.466Z,32.53
2018-05-10T06:05:52.626Z,35.63
2018-05-10T06:08:18.857Z,34.92
2018-05-10T06:10:45.043Z,35.60
2018-05-10T06:13:12.343Z,39.25
2018-05-10T06:15:38.597Z,41.65
2018-05-10T06:18:04.716Z,37.47
2018-05-10T06:20:30.911Z,37.70
2018-05-10T06:22:57.085Z,34.25
2018-05-10T06:25:23.454Z,30.02
2018-05-10T06:27:49.732Z,28.10
2018-05-10T06:30:17.064Z,25.35
2018-05-10T06:32:43.329Z,24.27
2018-05-10T06:35:09.585Z,31.87
2018-05-10T06:37:35.773Z,35.78
2018-05-10T06:40:01.931Z,37.70
2018-05-10T06:42:28.123Z,42.75
2018-05-10T06:44:55.513Z,42.00
2018-05-10T06:47:22.121Z,41.05
2018-05-10T06:49:48.428Z,42.92
2018-05-10T06:52:14.597Z,45.55
2018-05-10T06:54:40.794Z,44.92
2018-05-10T06:57:08.163Z,50.10
2018-05-10T06:59:34.390Z,49.28
2018-05-10T07:02:02.734Z,50.20
2018-05-10T07:04:30.972Z,53.45
2018-05-10T07:06:57.137Z,47.35
2018-05-10T07:09:23.551Z,52.17
2018-05-10T07:11:52.421Z,49.08
2018-05-10T07:14:18.667Z,53.35
2018-05-10T07:16:44.958Z,52.42
2018-05-10T07:19:11.156Z,51.78
2018-05-10T07:21:37.353Z,50.20
2018-05-10T07:24:03.544Z,54.05
2018-05-10T07:26:29.727Z,55.30
2018-05-10T07:28:55.937Z,55.85
2018-05-10T07:31:23.268Z,50.25
2018-05-10T07:33:49.470Z,50.75
2018-05-10T07:36:15.740Z,51.15
2018-05-10T07:38:42.176Z,52.88
2018-05-10T07:41:08.406Z,50.40
2018-05-10T07:43:34.570Z,50.08
2018-05-10T07:46:00.760Z,49.67
2018-05-10T07:48:28.087Z,51.97
2018-05-10T07:50:54.282Z,50.58
2018-05-10T07:53:20.474Z,51.45
2018-05-10T07:55:46.667Z,49.33
2018-05-10T07:58:12.855Z,49.45
2018-05-10T08:00:39.021Z,46.72
2018-05-10T08:03:06.311Z,47.45
2018-05-10T08:05:32.514Z,49.65
2018-05-10T08:07:58.700Z,45.92
2018-05-10T08:10:24.898Z,47.53
2018-05-10T08:12:51.167Z,43.50
2018-05-10T08:15:17.416Z,45.25
2018-05-10T08:17:43.623Z,43.60
2018-05-10T08:20:09.822Z,45.70
2018-05-10T08:22:36.265Z,42.90
2018-05-10T08:25:02.518Z,40.12
2018-05-10T08:27:46.866Z,40.85
2018-05-10T08:30:13.125Z,38.25
2018-05-10T08:32:39.309Z,39.92
2018-05-10T08:35:06.703Z,38.67
2018-05-10T08:37:32.854Z,37.88
2018-05-10T08:39:59.050Z,37.28
2018-05-10T08:42:25.206Z,37.70
2018-05-10T08:44:52.503Z,37.63
2018-05-10T08:47:18.682Z,37.15
2018-05-10T08:49:44.854Z,35.38
2018-05-10T08:52:12.155Z,37.25
2018-05-10T08:54:38.543Z,32.00
2018-05-10T08:57:04.788Z,35.80
2018-05-10T08:59:30.950Z,33.75
2018-05-10T09:01:57.125Z,32.30
2018-05-10T09:04:23.323Z,31.33
2018-05-10T09:06:51.296Z,30.33
2018-05-10T09:09:17.522Z,30.45
2018-05-10T09:11:43.793Z,29.27
2018-05-10T09:14:11.075Z,28.83
2018-05-10T09:16:37.330Z,27.42
2018-05-10T09:19:03.505Z,28.17
2018-05-10T09:21:29.686Z,27.87
2018-05-10T09:23:56.949Z,27.25
2018-05-10T09:26:24.347Z,27.92
2018-05-10T09:28:50.534Z,26.75
2018-05-10T09:31:16.730Z,27.67
2018-05-10T09:33:42.903Z,27.10
2018-05-10T09:36:09.095Z,25.67
2018-05-10T09:38:35.275Z,24.95
2018-05-10T09:41:01.513Z,25.48
2018-05-10T09:43:27.739Z,29.90
2018-05-10T09:45:53.927Z,25.90
2018-05-10T09:48:21.251Z,26.52
2018-05-10T09:50:47.517Z,26.20
2018-05-10T09:53:13.718Z,25.80
2018-05-10T09:55:40.008Z,27.13
2018-05-10T09:58:06.347Z,24.30
2018-05-10T10:00:32.618Z,24.55
2018-05-10T10:03:00.283Z,27.08
2018-05-10T10:05:26.506Z,24.58
2018-05-10T10:07:52.703Z,24.00
2018-05-10T10:10:19.071Z,24.75
2018-05-10T10:12:45.286Z,24.23
2018-05-10T10:15:11.454Z,27.92
2018-05-10T10:17:37.722Z,26.42
2018-05-10T10:20:03.900Z,23.83
2018-05-10T10:22:30.133Z,21.92
2018-05-10T10:24:57.422Z,21.80
2018-05-10T10:27:23.783Z,21.15
2018-05-10T10:29:50.201Z,21.05
2018-05-10T10:32:16.626Z,18.10
2018-05-10T10:34:44.244Z,19.83
2018-05-10T10:37:10.744Z,20.62
2018-05-10T10:39:36.959Z,20.17
2018-05-10T10:42:04.023Z,19.80
2018-05-10T10:44:30.298Z,18.05
2018-05-10T10:46:57.694Z,15.75
2018-05-10T10:49:23.916Z,16.30
2018-05-10T10:51:51.208Z,15.95
2018-05-10T10:54:17.419Z,17.02
2018-05-10T10:56:44.804Z,16.75
2018-05-10T10:59:10.983Z,16.52
2018-05-10T11:01:37.238Z,18.30
2018-05-10T11:04:04.450Z,16.45
2018-05-10T11:06:30.638Z,16.25
2018-05-10T11:08:56.823Z,16.80
2018-05-10T11:11:23.010Z,16.42
2018-05-10T11:13:49.178Z,16.35
2018-05-10T11:16:15.361Z,18.52
2018-05-10T11:18:41.598Z,19.02
2018-05-10T11:21:07.826Z,20.77
2018-05-10T11:23:34.018Z,20.12
2018-05-10T11:26:00.195Z,19.15
2018-05-10T11:28:26.362Z,20.85
2018-05-10T11:30:52.554Z,19.42
2018-05-10T11:33:18.745Z,19.52
2018-05-10T11:35:44.946Z,17.55
2018-05-10T11:38:11.107Z,19.37
2018-05-10T11:40:38.429Z,19.58
2018-05-10T11:43:04.644Z,19.92
2018-05-10T11:45:30.810Z,20.10
2018-05-10T11:47:57.117Z,19.65
2018-05-10T11:50:23.380Z,18.05
2018-05-10T11:52:49.541Z,17.98
2018-05-10T11:55:15.718Z,18.92
2018-05-10T11:57:41.958Z,19.10
2018-05-10T12:00:08.183Z,17.52
2018-05-10T12:02:35.678Z,18.77
2018-05-10T12:05:01.792Z,20.17
2018-05-10T12:07:27.980Z,17.62
2018-05-10T12:09:54.158Z,18.73
2018-05-10T12:12:20.335Z,17.87
2018-05-10T12:14:46.515Z,18.80
2018-05-10T12:17:12.790Z,17.40
2018-05-10T12:19:39.017Z,17.48
2018-05-10T12:22:05.313Z,17.65
2018-05-10T12:24:31.514Z,17.05
2018-05-10T12:26:58.849Z,18.50
2018-05-10T12:29:25.144Z,18.65
2018-05-10T12:31:51.396Z,18.83
2018-05-10T12:34:17.800Z,17.87
2018-05-10T12:36:43.979Z,18.58
2018-05-10T12:39:11.901Z,18.75
2018-05-10T12:41:38.098Z,18.73
2018-05-10T12:44:05.041Z,16.00
2018-05-10T12:46:32.553Z,14.87
2018-05-10T12:48:58.741Z,14.45
2018-05-10T12:51:24.962Z,14.50
2018-05-10T12:53:51.419Z,14.87
2018-05-10T12:56:18.773Z,13.90
2018-05-10T12:58:46.182Z,15.13
2018-05-10T13:01:13.578Z,15.02
2018-05-10T13:03:39.921Z,14.73
2018-05-10T13:06:06.122Z,15.10
2018-05-10T13:08:32.560Z,12.57
2018-05-10T13:10:58.743Z,11.18
2018-05-10T13:13:24.946Z,10.27
2018-05-10T13:15:51.275Z,10.82
2018-05-10T13:18:17.465Z,10.57
2018-05-10T13:20:43.819Z,11.02
2018-05-10T13:23:10.020Z,11.32
2018-05-10T13:25:36.185Z,12.73
2018-05-10T13:28:02.669Z,12.37
2018-05-10T13:30:30.015Z,11.60
2018-05-10T13:32:56.313Z,13.35
2018-05-10T13:35:22.522Z,13.75
2018-05-10T13:37:48.832Z,13.90
2018-05-10T13:40:15.205Z,15.13
2018-05-10T13:42:41.458Z,16.02
2018-05-10T13:45:07.806Z,16.95
2018-05-10T13:47:34.482Z,18.10
2018-05-10T13:50:00.664Z,19.45
2018-05-10T13:52:26.862Z,19.25
2018-05-10T13:54:53.254Z,20.67
2018-05-10T13:57:19.442Z,21.20
2018-05-10T13:59:45.736Z,20.65
2018-05-10T14:02:11.919Z,21.37
2018-05-10T14:04:38.183Z,22.48
2018-05-10T14:07:04.311Z,22.73
2018-05-10T14:09:30.474Z,22.30
2018-05-10T14:11:57.779Z,21.52
2018-05-10T14:14:23.942Z,18.45
2018-05-10T14:16:50.145Z,15.50
2018-05-10T14:19:16.306Z,14.77
2018-05-10T14:21:42.487Z,12.73
2018-05-10T14:24:08.658Z,11.57
2018-05-10T14:26:34.851Z,9.95
2018-05-10T14:29:01.054Z,10.02
2018-05-10T14:31:27.225Z,9.27
2018-05-10T14:33:53.415Z,9.07
2018-05-10T14:36:19.602Z,7.97
2018-05-10T14:38:45.795Z,7.90
2018-05-10T14:41:11.971Z,8.00
2018-05-10T14:43:38.190Z,7.25
2018-05-10T14:46:04.672Z,7.57
2018-05-10T14:48:32.453Z,6.40
2018-05-10T14:50:59.923Z,6.00
2018-05-10T14:53:26.184Z,6.25
2018-05-10T14:55:53.903Z,6.32
2018-05-10T14:58:20.160Z,6.12
2018-05-10T15:00:46.449Z,6.57
2018-05-10T15:03:12.665Z,6.68
2018-05-10T15:05:39.018Z,5.55
2018-05-10T15:08:05.348Z,5.47
2018-05-10T15:10:31.540Z,6.18
2018-05-10T15:12:59.487Z,5.60
2018-05-10T15:15:25.681Z,5.55
2018-05-10T15:17:52.077Z,4.87
2018-05-10T15:20:18.252Z,5.43
2018-05-10T15:22:44.430Z,5.20
2018-05-10T15:25:10.897Z,5.43
2018-05-10T15:27:38.183Z,5.40
2018-05-10T15:30:04.411Z,5.75
2018-05-10T15:32:30.580Z,5.10
2018-05-10T15:34:57.849Z,5.40
2018-05-10T15:37:24.029Z,6.60
2018-05-10T15:39:50.209Z,6.68
2018-05-10T15:42:16.496Z,6.43
2018-05-10T15:44:42.667Z,6.82
2018-05-10T15:47:08.846Z,7.05
2018-05-10T15:49:36.142Z,6.10
2018-05-10T15:52:02.334Z,7.57
2018-05-10T15:54:28.623Z,6.80
2018-05-10T15:56:54.796Z,7.50
2018-05-10T15:59:21.029Z,7.28
2018-05-10T16:01:47.180Z,7.53
2018-05-10T16:04:13.375Z,8.23
2018-05-10T16:06:39.583Z,6.72
2018-05-10T16:09:05.766Z,8.75
2018-05-10T16:11:31.976Z,8.43
2018-05-10T16:13:58.244Z,7.65
2018-05-10T16:16:25.642Z,7.95
2018-05-10T16:18:51.893Z,8.70
2018-05-10T16:21:18.510Z,8.48
2018-05-10T16:23:44.770Z,9.02
2018-05-10T16:26:11.060Z,9.00
2018-05-10T16:28:38.462Z,9.73
2018-05-10T16:31:04.674Z,7.43
2018-05-10T16:33:32.675Z,8.52
2018-05-10T16:35:58.770Z,8.70
2018-05-10T16:38:24.993Z,7.45
2018-05-10T16:40:52.459Z,7.80
2018-05-10T16:43:18.758Z,7.37
2018-05-10T16:45:46.746Z,7.32
2018-05-10T16:48:12.992Z,7.20
2018-05-10T16:50:39.311Z,7.18
2018-05-10T16:53:06.589Z,6.68
2018-05-10T16:55:33.861Z,6.57
2018-05-10T16:58:00.358Z,6.60
2018-05-10T17:00:26.535Z,7.37
2018-05-10T17:02:55.392Z,7.18
2018-05-10T17:05:21.807Z,6.93
2018-05-10T17:07:48.156Z,6.62
2018-05-10T17:10:14.414Z,6.57
2018-05-10T17:12:40.620Z,6.20
2018-05-10T17:15:06.912Z,6.43
2018-05-10T17:17:33.226Z,6.37
2018-05-10T17:19:59.440Z,5.85
2018-05-10T17:22:26.750Z,5.70
2018-05-10T17:24:52.946Z,6.12
2018-05-10T17:27:20.391Z,5.95
2018-05-10T17:29:47.134Z,5.78
2018-05-10T17:32:14.471Z,6.45
2018-05-10T17:34:40.680Z,6.28
2018-05-10T17:37:08.084Z,7.15
2018-05-10T17:39:34.354Z,6.87
2018-05-10T17:42:00.555Z,6.60
2018-05-10T17:44:26.868Z,6.97
2018-05-10T17:46:54.194Z,6.32
2018-05-10T17:49:20.403Z,6.57
2018-05-10T17:51:46.658Z,6.60
2018-05-10T17:54:12.847Z,6.78
2018-05-10T17:56:39.206Z,6.90
2018-05-10T17:59:05.535Z,6.72
2018-05-10T18:01:31.838Z,7.12
2018-05-10T18:03:58.179Z,7.10
2018-05-10T18:06:24.524Z,6.53
2018-05-10T18:08:50.883Z,5.95
2018-05-10T18:11:18.712Z,7.30
2018-05-10T18:13:46.530Z,6.15
2018-05-10T18:16:14.034Z,6.82
2018-05-10T18:18:41.482Z,6.90
2018-05-10T18:21:07.872Z,7.45
2018-05-10T18:23:34.168Z,7.30
2018-05-10T18:26:00.457Z,7.12
2018-05-10T18:28:27.802Z,6.37
2018-05-10T18:30:54.107Z,6.53
2018-05-10T18:33:20.381Z,6.43
2018-05-10T18:35:46.558Z,6.80
2018-05-10T18:38:14.581Z,6.28
2018-05-10T18:40:40.838Z,6.47
2018-05-10T18:43:07.319Z,6.00
2018-05-10T18:45:33.831Z,6.20
2018-05-10T18:48:00.150Z,6.07
2018-05-10T18:50:27.141Z,6.62
2018-05-10T18:52:53.557Z,5.30
2018-05-10T18:55:19.842Z,6.15
2018-05-10T18:57:47.645Z,6.70
2018-05-10T19:00:15.299Z,6.37
2018-05-10T19:02:41.649Z,5.82
2018-05-10T19:05:08.147Z,5.82
2018-05-10T19:07:34.340Z,6.80
2018-05-10T19:10:00.505Z,6.90
2018-05-10T19:12:26.954Z,6.37
2018-05-10T19:14:53.284Z,5.20
2018-05-10T19:17:19.581Z,5.85
2018-05-10T19:19:45.904Z,6.10
2018-05-10T19:22:12.078Z,6.47
2018-05-10T19:24:38.278Z,6.10
2018-05-10T19:27:04.496Z,6.82
2018-05-10T19:29:31.926Z,6.20
2018-05-10T19:31:58.421Z,5.87
2018-05-10T19:34:24.668Z,7.12
2018-05-10T19:36:50.859Z,7.68
2018-05-10T19:39:17.042Z,6.25
2018-05-10T19:41:43.492Z,6.90
2018-05-10T19:44:09.678Z,6.70
2018-05-10T19:46:35.845Z,6.45
2018-05-10T19:49:02.034Z,7.15
2018-05-10T19:51:28.224Z,7.20
2018-05-10T19:53:54.416Z,6.30
2018-05-10T19:56:20.588Z,6.70
2018-05-10T19:58:46.753Z,6.45
2018-05-10T20:01:14.246Z,7.22
2018-05-10T20:03:40.446Z,6.25
2018-05-10T20:06:08.209Z,6.90
2018-05-10T20:08:34.578Z,6.75
2018-05-10T20:11:00.710Z,7.78
2018-05-10T20:13:27.385Z,5.80
2018-05-10T20:15:54.668Z,7.75
2018-05-10T20:18:20.871Z,7.18
2018-05-10T20:20:47.172Z,7.75
2018-05-10T20:23:13.375Z,7.65
2018-05-10T20:25:40.670Z,7.62
2018-05-10T20:28:06.864Z,7.97
2018-05-10T20:30:33.051Z,8.40
2018-05-10T20:32:59.771Z,7.85
2018-05-10T20:35:26.004Z,7.75
2018-05-10T20:37:52.171Z,7.97
2018-05-10T20:40:18.349Z,8.50
2018-05-10T20:42:44.549Z,8.55
2018-05-10T20:45:10.750Z,8.55
2018-05-10T20:47:36.919Z,8.82
2018-05-10T20:50:04.211Z,8.38
2018-05-10T20:52:30.402Z,8.43
2018-05-10T20:54:56.594Z,8.45
2018-05-10T20:57:22.805Z,7.87
2018-05-10T20:59:50.082Z,7.53
2018-05-10T21:02:16.321Z,6.78
2018-05-10T21:04:44.309Z,7.55
2018-05-10T21:07:10.485Z,6.93
2018-05-10T21:09:37.333Z,7.30
2018-05-10T21:12:03.746Z,8.48
2018-05-10T21:14:29.998Z,8.23
2018-05-10T21:16:56.235Z,8.25
2018-05-10T21:19:22.520Z,8.50
2018-05-10T21:21:49.067Z,8.05
2018-05-10T21:24:15.376Z,7.32
2018-05-10T21:26:41.619Z,8.82
2018-05-10T21:29:08.271Z,8.55
2018-05-10T21:31:34.808Z,9.05
2018-05-10T21:34:02.912Z,8.13
2018-05-10T21:36:29.036Z,9.23
2018-05-10T21:38:55.234Z,8.50
2018-05-10T21:41:21.405Z,10.13
2018-05-10T21:43:47.599Z,9.57
2018-05-10T21:46:13.840Z,7.85
2018-05-10T21:48:40.023Z,9.23
2018-05-10T21:51:07.310Z,8.43
2018-05-10T21:53:33.544Z,9.93
2018-05-10T21:55:59.740Z,9.55
2018-05-10T21:58:25.919Z,8.70
2018-05-10T22:00:53.298Z,10.35
2018-05-10T22:03:19.526Z,9.45
2018-05-10T22:05:46.859Z,9.00
2018-05-10T22:08:13.055Z,10.30
2018-05-10T22:10:39.325Z,9.90
2018-05-10T22:13:05.567Z,8.82
2018-05-10T22:15:31.777Z,9.02
2018-05-10T22:17:57.992Z,9.57
2018-05-10T22:20:25.274Z,9.32
2018-05-10T22:22:51.566Z,9.88
2018-05-10T22:25:17.739Z,9.77
2018-05-10T22:27:45.154Z,9.20
2018-05-10T22:30:11.520Z,8.85
2018-05-10T22:32:37.642Z,9.88
2018-05-10T22:35:03.892Z,10.60
2018-05-10T22:37:30.165Z,9.38
2018-05-10T22:39:56.383Z,9.05
2018-05-10T22:42:22.571Z,9.68
2018-05-10T22:44:49.842Z,8.82
2018-05-10T22:47:17.745Z,8.93
2018-05-10T22:49:43.905Z,10.40
2018-05-10T22:52:10.071Z,9.65
2018-05-10T22:54:36.294Z,10.40
2018-05-10T22:57:02.482Z,9.45
2018-05-10T22:59:28.677Z,10.18
2018-05-10T23:01:54.852Z,9.15
2018-05-10T23:04:22.146Z,8.82
2018-05-10T23:06:48.330Z,10.95
2018-05-10T23:09:14.502Z,10.00
2018-05-10T23:11:40.765Z,10.38
2018-05-10T23:14:07.017Z,9.63
2018-05-10T23:16:33.256Z,10.15
2018-05-10T23:18:59.499Z,10.45
2018-05-10T23:21:25.699Z,11.12
2018-05-10T23:23:53.015Z,10.65
2018-05-10T23:26:19.210Z,10.05
2018-05-10T23:28:46.485Z,11.30
2018-05-10T23:31:13.782Z,11.68
2018-05-10T23:33:39.959Z,9.52
2018-05-10T23:36:06.178Z,11.07
2018-05-10T23:38:32.346Z,9.95
2018-05-10T23:40:58.602Z,10.13
2018-05-10T23:43:26.009Z,11.20
2018-05-10T23:45:52.188Z,9.93
2018-05-10T23:48:18.363Z,11.05
2018-05-10T23:50:45.690Z,10.85
2018-05-10T23:53:11.875Z,10.52
2018-05-10T23:55:38.034Z,10.90
2018-05-10T23:58:04.256Z,9.95
